sensor_id;sensor_type;location;lat;lon;timestamp;temperature;humidity
48978;DHT22;34793;48.940;2.618;2022-08-21T00:01:39;24.40;62.40
48978;DHT22;34793;48.940;2.618;2022-08-21T00:04:05;24.40;62.30
48978;DHT22;34793;48.940;2.618;2022-08-21T00:06:31;24.40;62.00
48978;DHT22;34793;48.940;2.618;2022-08-21T00:08:58;24.50;61.90
48978;DHT22;34793;48.940;2.618;2022-08-21T00:11:23;24.40;61.90
48978;DHT22;34793;48.940;2.618;2022-08-21T00:13:49;24.40;61.70
48978;DHT22;34793;48.940;2.618;2022-08-21T00:16:14;24.40;61.80
48978;DHT22;34793;48.940;2.618;2022-08-21T00:18:40;24.40;61.60
48978;DHT22;34793;48.940;2.618;2022-08-21T00:21:06;24.40;62.00
48978;DHT22;34793;48.940;2.618;2022-08-21T00:23:33;24.20;62.30
48978;DHT22;34793;48.940;2.618;2022-08-21T00:25:58;23.90;63.30
48978;DHT22;34793;48.940;2.618;2022-08-21T00:28:24;23.80;63.60
48978;DHT22;34793;48.940;2.618;2022-08-21T00:30:50;23.90;62.80
48978;DHT22;34793;48.940;2.618;2022-08-21T00:33:16;24.10;62.50
48978;DHT22;34793;48.940;2.618;2022-08-21T00:35:42;23.90;62.90
48978;DHT22;34793;48.940;2.618;2022-08-21T00:38:08;24.00;62.70
48978;DHT22;34793;48.940;2.618;2022-08-21T00:40:38;24.10;62.20
48978;DHT22;34793;48.940;2.618;2022-08-21T00:43:05;24.00;62.40
48978;DHT22;34793;48.940;2.618;2022-08-21T00:45:31;24.00;62.70
48978;DHT22;34793;48.940;2.618;2022-08-21T00:47:57;24.00;62.60
48978;DHT22;34793;48.940;2.618;2022-08-21T00:50:22;23.90;62.80
48978;DHT22;34793;48.940;2.618;2022-08-21T00:52:51;24.00;62.40
48978;DHT22;34793;48.940;2.618;2022-08-21T00:55:16;23.90;62.30
48978;DHT22;34793;48.940;2.618;2022-08-21T00:57:44;23.90;62.50
48978;DHT22;34793;48.940;2.618;2022-08-21T01:00:13;23.80;62.70
48978;DHT22;34793;48.940;2.618;2022-08-21T01:02:40;23.90;63.00
48978;DHT22;34793;48.940;2.618;2022-08-21T01:05:06;23.80;63.40
48978;DHT22;34793;48.940;2.618;2022-08-21T01:07:31;23.70;63.70
48978;DHT22;34793;48.940;2.618;2022-08-21T01:09:57;23.70;63.70
48978;DHT22;34793;48.940;2.618;2022-08-21T01:12:23;23.80;63.20
48978;DHT22;34793;48.940;2.618;2022-08-21T01:14:48;23.80;63.10
48978;DHT22;34793;48.940;2.618;2022-08-21T01:17:14;23.80;63.30
48978;DHT22;34793;48.940;2.618;2022-08-21T01:19:40;23.60;63.60
48978;DHT22;34793;48.940;2.618;2022-08-21T01:22:06;23.40;64.40
48978;DHT22;34793;48.940;2.618;2022-08-21T01:24:32;23.60;63.70
48978;DHT22;34793;48.940;2.618;2022-08-21T01:26:58;23.60;63.50
48978;DHT22;34793;48.940;2.618;2022-08-21T01:31:52;23.70;63.50
48978;DHT22;34793;48.940;2.618;2022-08-21T01:34:18;23.70;63.80
48978;DHT22;34793;48.940;2.618;2022-08-21T01:36:44;23.60;63.70
48978;DHT22;34793;48.940;2.618;2022-08-21T01:39:10;23.60;63.90
48978;DHT22;34793;48.940;2.618;2022-08-21T01:41:36;23.50;64.20
48978;DHT22;34793;48.940;2.618;2022-08-21T01:44:01;23.60;63.70
48978;DHT22;34793;48.940;2.618;2022-08-21T01:46:27;23.60;63.50
48978;DHT22;34793;48.940;2.618;2022-08-21T01:48:52;23.60;64.10
48978;DHT22;34793;48.940;2.618;2022-08-21T01:51:18;23.60;63.70
48978;DHT22;34793;48.940;2.618;2022-08-21T01:53:43;23.60;63.90
48978;DHT22;34793;48.940;2.618;2022-08-21T01:56:09;23.40;65.00
48978;DHT22;34793;48.940;2.618;2022-08-21T01:58:35;23.40;64.80
48978;DHT22;34793;48.940;2.618;2022-08-21T02:01:01;23.50;64.30
48978;DHT22;34793;48.940;2.618;2022-08-21T02:03:28;23.40;64.70
48978;DHT22;34793;48.940;2.618;2022-08-21T02:05:53;23.40;64.40
48978;DHT22;34793;48.940;2.618;2022-08-21T02:08:19;23.50;63.90
48978;DHT22;34793;48.940;2.618;2022-08-21T02:10:44;23.50;64.30
48978;DHT22;34793;48.940;2.618;2022-08-21T02:13:11;23.40;64.20
48978;DHT22;34793;48.940;2.618;2022-08-21T02:15:37;23.50;64.30
48978;DHT22;34793;48.940;2.618;2022-08-21T02:18:04;23.40;64.10
48978;DHT22;34793;48.940;2.618;2022-08-21T02:20:32;23.40;64.00
48978;DHT22;34793;48.940;2.618;2022-08-21T02:22:58;23.40;63.90
48978;DHT22;34793;48.940;2.618;2022-08-21T02:25:24;23.30;63.80
48978;DHT22;34793;48.940;2.618;2022-08-21T02:27:50;23.30;64.00
48978;DHT22;34793;48.940;2.618;2022-08-21T02:30:18;23.30;64.00
48978;DHT22;34793;48.940;2.618;2022-08-21T02:32:44;23.20;63.90
48978;DHT22;34793;48.940;2.618;2022-08-21T02:35:10;23.10;64.10
48978;DHT22;34793;48.940;2.618;2022-08-21T02:40:11;23.10;63.80
48978;DHT22;34793;48.940;2.618;2022-08-21T02:42:37;23.10;64.10
48978;DHT22;34793;48.940;2.618;2022-08-21T02:45:04;23.00;64.20
48978;DHT22;34793;48.940;2.618;2022-08-21T02:47:29;23.00;64.30
48978;DHT22;34793;48.940;2.618;2022-08-21T02:49:55;22.90;64.50
48978;DHT22;34793;48.940;2.618;2022-08-21T02:52:20;22.90;64.40
48978;DHT22;34793;48.940;2.618;2022-08-21T02:54:47;22.90;64.60
48978;DHT22;34793;48.940;2.618;2022-08-21T02:57:12;22.90;64.60
48978;DHT22;34793;48.940;2.618;2022-08-21T02:59:38;22.90;64.40
48978;DHT22;34793;48.940;2.618;2022-08-21T03:02:04;22.80;64.30
48978;DHT22;34793;48.940;2.618;2022-08-21T03:04:29;22.80;64.20
48978;DHT22;34793;48.940;2.618;2022-08-21T03:06:55;22.80;64.60
48978;DHT22;34793;48.940;2.618;2022-08-21T03:09:20;22.80;64.50
48978;DHT22;34793;48.940;2.618;2022-08-21T03:11:46;22.60;65.10
48978;DHT22;34793;48.940;2.618;2022-08-21T03:14:12;22.70;64.70
48978;DHT22;34793;48.940;2.618;2022-08-21T03:16:37;22.70;65.70
48978;DHT22;34793;48.940;2.618;2022-08-21T03:19:03;22.60;65.60
48978;DHT22;34793;48.940;2.618;2022-08-21T03:21:28;22.60;65.10
48978;DHT22;34793;48.940;2.618;2022-08-21T03:23:54;22.60;65.10
48978;DHT22;34793;48.940;2.618;2022-08-21T03:26:19;22.60;64.50
48978;DHT22;34793;48.940;2.618;2022-08-21T03:28:45;22.50;64.70
48978;DHT22;34793;48.940;2.618;2022-08-21T03:31:10;22.50;65.10
48978;DHT22;34793;48.940;2.618;2022-08-21T03:33:36;22.50;64.70
48978;DHT22;34793;48.940;2.618;2022-08-21T03:36:03;22.60;64.90
48978;DHT22;34793;48.940;2.618;2022-08-21T03:38:30;22.50;65.10
48978;DHT22;34793;48.940;2.618;2022-08-21T03:40:56;22.50;64.80
48978;DHT22;34793;48.940;2.618;2022-08-21T03:43:27;22.50;65.00
48978;DHT22;34793;48.940;2.618;2022-08-21T03:45:52;22.50;64.90
48978;DHT22;34793;48.940;2.618;2022-08-21T03:48:18;22.30;65.10
48978;DHT22;34793;48.940;2.618;2022-08-21T03:50:44;22.10;65.60
48978;DHT22;34793;48.940;2.618;2022-08-21T03:53:12;22.10;66.00
48978;DHT22;34793;48.940;2.618;2022-08-21T03:55:38;22.20;65.20
48978;DHT22;34793;48.940;2.618;2022-08-21T03:58:03;22.10;65.70
48978;DHT22;34793;48.940;2.618;2022-08-21T04:00:29;22.20;65.00
48978;DHT22;34793;48.940;2.618;2022-08-21T04:02:55;22.20;65.00
48978;DHT22;34793;48.940;2.618;2022-08-21T04:05:20;22.20;65.00
48978;DHT22;34793;48.940;2.618;2022-08-21T04:07:59;22.30;64.90
48978;DHT22;34793;48.940;2.618;2022-08-21T04:10:25;22.30;64.80
48978;DHT22;34793;48.940;2.618;2022-08-21T04:12:51;22.20;64.70
48978;DHT22;34793;48.940;2.618;2022-08-21T04:15:17;22.20;64.60
48978;DHT22;34793;48.940;2.618;2022-08-21T04:17:42;22.20;64.90
48978;DHT22;34793;48.940;2.618;2022-08-21T04:20:08;22.10;64.60
48978;DHT22;34793;48.940;2.618;2022-08-21T04:22:33;22.10;64.90
48978;DHT22;34793;48.940;2.618;2022-08-21T04:24:59;22.10;65.00
48978;DHT22;34793;48.940;2.618;2022-08-21T04:27:24;22.10;64.70
48978;DHT22;34793;48.940;2.618;2022-08-21T04:29:50;22.10;64.90
48978;DHT22;34793;48.940;2.618;2022-08-21T04:32:24;22.00;65.30
48978;DHT22;34793;48.940;2.618;2022-08-21T04:34:50;22.00;65.60
48978;DHT22;34793;48.940;2.618;2022-08-21T04:37:16;21.90;66.20
48978;DHT22;34793;48.940;2.618;2022-08-21T04:39:41;21.90;65.70
48978;DHT22;34793;48.940;2.618;2022-08-21T04:42:07;22.00;65.50
48978;DHT22;34793;48.940;2.618;2022-08-21T04:44:34;22.10;65.40
48978;DHT22;34793;48.940;2.618;2022-08-21T04:46:59;22.10;65.70
48978;DHT22;34793;48.940;2.618;2022-08-21T04:49:25;22.10;65.40
48978;DHT22;34793;48.940;2.618;2022-08-21T04:51:50;22.10;65.40
48978;DHT22;34793;48.940;2.618;2022-08-21T04:54:19;22.10;65.50
48978;DHT22;34793;48.940;2.618;2022-08-21T04:56:47;22.10;65.40
48978;DHT22;34793;48.940;2.618;2022-08-21T04:59:15;22.10;65.20
48978;DHT22;34793;48.940;2.618;2022-08-21T05:01:42;22.10;65.10
48978;DHT22;34793;48.940;2.618;2022-08-21T05:04:09;22.20;65.10
48978;DHT22;34793;48.940;2.618;2022-08-21T05:06:36;22.10;65.20
48978;DHT22;34793;48.940;2.618;2022-08-21T05:09:03;22.10;65.10
48978;DHT22;34793;48.940;2.618;2022-08-21T05:11:29;22.10;65.10
48978;DHT22;34793;48.940;2.618;2022-08-21T05:13:55;22.10;65.10
48978;DHT22;34793;48.940;2.618;2022-08-21T05:16:21;22.10;65.40
48978;DHT22;34793;48.940;2.618;2022-08-21T05:18:46;22.10;65.60
48978;DHT22;34793;48.940;2.618;2022-08-21T05:21:12;22.00;65.90
48978;DHT22;34793;48.940;2.618;2022-08-21T05:23:37;22.00;65.80
48978;DHT22;34793;48.940;2.618;2022-08-21T05:26:03;22.00;65.70
48978;DHT22;34793;48.940;2.618;2022-08-21T05:28:29;22.10;65.40
48978;DHT22;34793;48.940;2.618;2022-08-21T05:30:55;22.10;65.10
48978;DHT22;34793;48.940;2.618;2022-08-21T05:33:20;22.10;65.00
48978;DHT22;34793;48.940;2.618;2022-08-21T05:35:48;22.10;65.10
48978;DHT22;34793;48.940;2.618;2022-08-21T05:38:14;22.10;65.20
48978;DHT22;34793;48.940;2.618;2022-08-21T05:40:39;22.10;65.00
48978;DHT22;34793;48.940;2.618;2022-08-21T05:43:05;22.10;65.30
48978;DHT22;34793;48.940;2.618;2022-08-21T05:45:31;22.10;65.60
48978;DHT22;34793;48.940;2.618;2022-08-21T05:47:57;22.10;65.40
48978;DHT22;34793;48.940;2.618;2022-08-21T05:50:23;22.00;66.10
48978;DHT22;34793;48.940;2.618;2022-08-21T05:52:49;21.90;66.40
48978;DHT22;34793;48.940;2.618;2022-08-21T05:55:15;21.90;66.70
48978;DHT22;34793;48.940;2.618;2022-08-21T05:57:40;22.00;66.30
48978;DHT22;34793;48.940;2.618;2022-08-21T06:00:07;22.10;66.10
48978;DHT22;34793;48.940;2.618;2022-08-21T06:02:35;22.10;66.20
48978;DHT22;34793;48.940;2.618;2022-08-21T06:05:01;22.10;66.90
48978;DHT22;34793;48.940;2.618;2022-08-21T06:07:26;22.20;66.20
48978;DHT22;34793;48.940;2.618;2022-08-21T06:09:52;22.20;66.30
48978;DHT22;34793;48.940;2.618;2022-08-21T06:12:17;22.20;66.20
48978;DHT22;34793;48.940;2.618;2022-08-21T06:14:43;22.30;66.00
48978;DHT22;34793;48.940;2.618;2022-08-21T06:17:10;22.40;65.90
48978;DHT22;34793;48.940;2.618;2022-08-21T06:19:36;22.40;66.10
48978;DHT22;34793;48.940;2.618;2022-08-21T06:22:01;22.30;66.80
48978;DHT22;34793;48.940;2.618;2022-08-21T06:24:27;22.40;66.80
48978;DHT22;34793;48.940;2.618;2022-08-21T06:26:53;22.40;67.70
48978;DHT22;34793;48.940;2.618;2022-08-21T06:29:19;22.40;67.80
48978;DHT22;34793;48.940;2.618;2022-08-21T06:31:46;22.30;68.10
48978;DHT22;34793;48.940;2.618;2022-08-21T06:34:11;22.40;68.00
48978;DHT22;34793;48.940;2.618;2022-08-21T06:36:37;22.30;68.40
48978;DHT22;34793;48.940;2.618;2022-08-21T06:39:02;22.50;69.50
48978;DHT22;34793;48.940;2.618;2022-08-21T06:41:28;22.50;69.00
48978;DHT22;34793;48.940;2.618;2022-08-21T06:43:54;22.60;69.60
48978;DHT22;34793;48.940;2.618;2022-08-21T06:46:20;22.80;69.50
48978;DHT22;34793;48.940;2.618;2022-08-21T06:48:46;22.90;69.70
48978;DHT22;34793;48.940;2.618;2022-08-21T06:51:11;23.00;69.90
48978;DHT22;34793;48.940;2.618;2022-08-21T06:53:37;23.30;69.70
48978;DHT22;34793;48.940;2.618;2022-08-21T06:56:03;23.30;70.20
48978;DHT22;34793;48.940;2.618;2022-08-21T06:58:28;23.50;70.20
48978;DHT22;34793;48.940;2.618;2022-08-21T07:00:54;24.00;69.90
48978;DHT22;34793;48.940;2.618;2022-08-21T07:03:41;24.40;69.60
48978;DHT22;34793;48.940;2.618;2022-08-21T07:06:06;24.80;69.00
48978;DHT22;34793;48.940;2.618;2022-08-21T07:08:31;25.20;68.40
48978;DHT22;34793;48.940;2.618;2022-08-21T07:10:58;25.40;68.70
48978;DHT22;34793;48.940;2.618;2022-08-21T07:13:24;25.90;67.00
48978;DHT22;34793;48.940;2.618;2022-08-21T07:15:49;26.20;63.70
48978;DHT22;34793;48.940;2.618;2022-08-21T07:18:15;26.50;63.60
48978;DHT22;34793;48.940;2.618;2022-08-21T07:20:41;26.80;64.10
48978;DHT22;34793;48.940;2.618;2022-08-21T07:23:08;27.10;62.60
48978;DHT22;34793;48.940;2.618;2022-08-21T07:25:34;27.40;62.00
48978;DHT22;34793;48.940;2.618;2022-08-21T07:28:00;27.30;61.90
48978;DHT22;34793;48.940;2.618;2022-08-21T07:30:25;27.50;61.50
48978;DHT22;34793;48.940;2.618;2022-08-21T07:32:51;27.80;61.70
48978;DHT22;34793;48.940;2.618;2022-08-21T07:35:17;27.70;61.60
48978;DHT22;34793;48.940;2.618;2022-08-21T07:37:43;28.10;61.00
48978;DHT22;34793;48.940;2.618;2022-08-21T07:40:09;28.40;60.40
48978;DHT22;34793;48.940;2.618;2022-08-21T07:42:34;28.60;59.10
48978;DHT22;34793;48.940;2.618;2022-08-21T07:45:04;28.20;59.60
48978;DHT22;34793;48.940;2.618;2022-08-21T07:47:30;28.30;59.60
48978;DHT22;34793;48.940;2.618;2022-08-21T07:49:55;28.20;59.30
48978;DHT22;34793;48.940;2.618;2022-08-21T07:52:21;28.40;60.10
48978;DHT22;34793;48.940;2.618;2022-08-21T07:54:46;28.50;59.10
48978;DHT22;34793;48.940;2.618;2022-08-21T07:57:12;28.60;59.20
48978;DHT22;34793;48.940;2.618;2022-08-21T07:59:37;28.90;59.30
48978;DHT22;34793;48.940;2.618;2022-08-21T08:02:03;29.20;59.20
48978;DHT22;34793;48.940;2.618;2022-08-21T08:04:30;29.50;58.70
48978;DHT22;34793;48.940;2.618;2022-08-21T08:06:55;29.60;57.60
48978;DHT22;34793;48.940;2.618;2022-08-21T08:09:21;30.00;57.60
48978;DHT22;34793;48.940;2.618;2022-08-21T08:11:46;30.50;57.80
48978;DHT22;34793;48.940;2.618;2022-08-21T08:14:12;30.70;56.00
48978;DHT22;34793;48.940;2.618;2022-08-21T08:16:37;31.00;56.40
48978;DHT22;34793;48.940;2.618;2022-08-21T08:19:03;31.00;55.20
48978;DHT22;34793;48.940;2.618;2022-08-21T08:21:29;31.30;55.90
48978;DHT22;34793;48.940;2.618;2022-08-21T08:23:54;31.40;55.80
48978;DHT22;34793;48.940;2.618;2022-08-21T08:26:20;31.40;55.40
48978;DHT22;34793;48.940;2.618;2022-08-21T08:28:45;31.60;55.50
48978;DHT22;34793;48.940;2.618;2022-08-21T08:31:13;31.90;54.80
48978;DHT22;34793;48.940;2.618;2022-08-21T08:33:38;31.90;55.70
48978;DHT22;34793;48.940;2.618;2022-08-21T08:36:04;31.80;54.60
48978;DHT22;34793;48.940;2.618;2022-08-21T08:38:29;31.80;54.70
48978;DHT22;34793;48.940;2.618;2022-08-21T08:41:10;31.20;54.40
48978;DHT22;34793;48.940;2.618;2022-08-21T08:43:38;31.40;55.10
48978;DHT22;34793;48.940;2.618;2022-08-21T08:46:06;31.20;55.50
48978;DHT22;34793;48.940;2.618;2022-08-21T08:51:06;31.10;55.90
48978;DHT22;34793;48.940;2.618;2022-08-21T08:53:55;30.40;55.90
48978;DHT22;34793;48.940;2.618;2022-08-21T08:56:23;30.50;56.80
48978;DHT22;34793;48.940;2.618;2022-08-21T08:58:51;30.70;56.70
48978;DHT22;34793;48.940;2.618;2022-08-21T09:01:18;31.20;56.70
48978;DHT22;34793;48.940;2.618;2022-08-21T09:03:45;31.60;56.80
48978;DHT22;34793;48.940;2.618;2022-08-21T09:14:25;32.50;54.10
48978;DHT22;34793;48.940;2.618;2022-08-21T09:16:57;32.70;54.10
48978;DHT22;34793;48.940;2.618;2022-08-21T09:21:58;32.80;53.20
48978;DHT22;34793;48.940;2.618;2022-08-21T09:24:32;32.90;53.80
48978;DHT22;34793;48.940;2.618;2022-08-21T09:29:31;32.70;54.00
48978;DHT22;34793;48.940;2.618;2022-08-21T09:31:58;32.70;55.00
48978;DHT22;34793;48.940;2.618;2022-08-21T09:34:27;32.10;52.10
48978;DHT22;34793;48.940;2.618;2022-08-21T09:36:54;32.00;52.50
48978;DHT22;34793;48.940;2.618;2022-08-21T09:39:27;32.20;52.80
48978;DHT22;34793;48.940;2.618;2022-08-21T09:42:11;31.60;51.50
48978;DHT22;34793;48.940;2.618;2022-08-21T09:44:41;32.00;53.00
48978;DHT22;34793;48.940;2.618;2022-08-21T09:47:09;32.20;52.80
48978;DHT22;34793;48.940;2.618;2022-08-21T09:49:36;32.50;54.00
48978;DHT22;34793;48.940;2.618;2022-08-21T09:52:03;32.70;54.10
48978;DHT22;34793;48.940;2.618;2022-08-21T09:54:38;33.50;54.40
48978;DHT22;34793;48.940;2.618;2022-08-21T09:57:12;33.40;49.80
48978;DHT22;34793;48.940;2.618;2022-08-21T10:00:19;33.80;52.00
48978;DHT22;34793;48.940;2.618;2022-08-21T10:02:45;34.30;49.40
48978;DHT22;34793;48.940;2.618;2022-08-21T10:05:18;34.60;48.10
48978;DHT22;34793;48.940;2.618;2022-08-21T10:07:44;34.40;46.20
48978;DHT22;34793;48.940;2.618;2022-08-21T10:10:14;34.50;47.80
48978;DHT22;34793;48.940;2.618;2022-08-21T10:15:13;34.70;48.10
48978;DHT22;34793;48.940;2.618;2022-08-21T10:20:29;35.20;48.80
48978;DHT22;34793;48.940;2.618;2022-08-21T10:28:40;34.90;47.60
48978;DHT22;34793;48.940;2.618;2022-08-21T10:31:12;35.10;48.50
48978;DHT22;34793;48.940;2.618;2022-08-21T10:33:42;35.60;48.80
48978;DHT22;34793;48.940;2.618;2022-08-21T10:43:49;35.30;47.20
48978;DHT22;34793;48.940;2.618;2022-08-21T10:48:59;35.20;47.50
48978;DHT22;34793;48.940;2.618;2022-08-21T10:56:28;34.60;49.20
48978;DHT22;34793;48.940;2.618;2022-08-21T11:02:13;34.20;50.20
48978;DHT22;34793;48.940;2.618;2022-08-21T11:07:08;34.70;48.40
48978;DHT22;34793;48.940;2.618;2022-08-21T11:09:36;34.60;48.20
48978;DHT22;34793;48.940;2.618;2022-08-21T11:12:08;34.40;49.20
48978;DHT22;34793;48.940;2.618;2022-08-21T11:14:55;34.40;47.60
48978;DHT22;34793;48.940;2.618;2022-08-21T11:17:24;34.30;48.40
48978;DHT22;34793;48.940;2.618;2022-08-21T11:19:59;34.30;46.00
48978;DHT22;34793;48.940;2.618;2022-08-21T11:22:30;34.50;47.80
48978;DHT22;34793;48.940;2.618;2022-08-21T11:27:30;34.90;46.50
48978;DHT22;34793;48.940;2.618;2022-08-21T11:29:59;35.00;45.80
48978;DHT22;34793;48.940;2.618;2022-08-21T11:43:06;34.80;48.30
48978;DHT22;34793;48.940;2.618;2022-08-21T11:45:55;35.00;47.40
48978;DHT22;34793;48.940;2.618;2022-08-21T11:50:55;35.30;46.50
48978;DHT22;34793;48.940;2.618;2022-08-21T11:53:24;35.20;46.80
48978;DHT22;34793;48.940;2.618;2022-08-21T11:55:55;35.20;46.70
48978;DHT22;34793;48.940;2.618;2022-08-21T11:58:41;35.30;47.50
48978;DHT22;34793;48.940;2.618;2022-08-21T12:01:09;35.20;47.60
48978;DHT22;34793;48.940;2.618;2022-08-21T12:03:37;35.20;46.80
48978;DHT22;34793;48.940;2.618;2022-08-21T12:06:06;35.00;46.80
48978;DHT22;34793;48.940;2.618;2022-08-21T12:08:37;34.90;47.10
48978;DHT22;34793;48.940;2.618;2022-08-21T12:11:07;34.80;48.60
48978;DHT22;34793;48.940;2.618;2022-08-21T12:13:34;34.80;46.20
48978;DHT22;34793;48.940;2.618;2022-08-21T12:18:32;34.80;46.50
48978;DHT22;34793;48.940;2.618;2022-08-21T12:24:15;34.50;47.80
48978;DHT22;34793;48.940;2.618;2022-08-21T12:26:51;34.40;46.80
48978;DHT22;34793;48.940;2.618;2022-08-21T12:34:41;34.60;47.40
48978;DHT22;34793;48.940;2.618;2022-08-21T12:39:54;35.10;47.60
48978;DHT22;34793;48.940;2.618;2022-08-21T12:42:25;34.90;48.00
48978;DHT22;34793;48.940;2.618;2022-08-21T12:45:02;35.00;49.00
48978;DHT22;34793;48.940;2.618;2022-08-21T12:47:36;34.90;48.70
48978;DHT22;34793;48.940;2.618;2022-08-21T12:50:09;34.60;47.80
48978;DHT22;34793;48.940;2.618;2022-08-21T12:52:53;34.50;48.80
48978;DHT22;34793;48.940;2.618;2022-08-21T12:55:25;34.60;48.70
48978;DHT22;34793;48.940;2.618;2022-08-21T12:57:51;34.70;49.70
48978;DHT22;34793;48.940;2.618;2022-08-21T13:00:19;34.80;49.10
48978;DHT22;34793;48.940;2.618;2022-08-21T13:02:46;35.00;50.20
48978;DHT22;34793;48.940;2.618;2022-08-21T13:05:14;35.00;49.00
48978;DHT22;34793;48.940;2.618;2022-08-21T13:07:44;35.30;49.90
48978;DHT22;34793;48.940;2.618;2022-08-21T13:10:18;35.30;49.10
48978;DHT22;34793;48.940;2.618;2022-08-21T13:12:44;35.30;48.60
48978;DHT22;34793;48.940;2.618;2022-08-21T13:15:10;35.30;48.70
48978;DHT22;34793;48.940;2.618;2022-08-21T13:17:38;35.30;48.90
48978;DHT22;34793;48.940;2.618;2022-08-21T13:20:05;35.10;48.00
48978;DHT22;34793;48.940;2.618;2022-08-21T13:22:31;34.80;49.30
48978;DHT22;34793;48.940;2.618;2022-08-21T13:24:57;34.80;49.10
48978;DHT22;34793;48.940;2.618;2022-08-21T13:27:24;35.00;49.40
48978;DHT22;34793;48.940;2.618;2022-08-21T13:30:00;35.00;49.20
48978;DHT22;34793;48.940;2.618;2022-08-21T13:32:26;35.10;50.00
48978;DHT22;34793;48.940;2.618;2022-08-21T13:34:53;35.30;48.50
48978;DHT22;34793;48.940;2.618;2022-08-21T13:37:18;35.70;48.40
48978;DHT22;34793;48.940;2.618;2022-08-21T13:39:48;35.90;48.00
48978;DHT22;34793;48.940;2.618;2022-08-21T13:42:14;35.20;47.80
48978;DHT22;34793;48.940;2.618;2022-08-21T13:44:41;35.30;50.30
48978;DHT22;34793;48.940;2.618;2022-08-21T13:47:07;35.60;48.30
48978;DHT22;34793;48.940;2.618;2022-08-21T13:49:38;35.70;48.90
48978;DHT22;34793;48.940;2.618;2022-08-21T13:52:05;35.60;48.50
48978;DHT22;34793;48.940;2.618;2022-08-21T13:54:39;35.60;48.50
48978;DHT22;34793;48.940;2.618;2022-08-21T13:57:15;35.60;48.20
48978;DHT22;34793;48.940;2.618;2022-08-21T13:59:41;35.40;48.40
48978;DHT22;34793;48.940;2.618;2022-08-21T14:02:11;35.50;48.80
48978;DHT22;34793;48.940;2.618;2022-08-21T14:04:38;35.30;48.90
48978;DHT22;34793;48.940;2.618;2022-08-21T14:07:13;35.30;49.20
48978;DHT22;34793;48.940;2.618;2022-08-21T14:09:40;35.30;49.30
48978;DHT22;34793;48.940;2.618;2022-08-21T14:12:18;35.10;50.00
48978;DHT22;34793;48.940;2.618;2022-08-21T14:14:44;35.00;50.40
48978;DHT22;34793;48.940;2.618;2022-08-21T14:17:12;35.00;49.40
48978;DHT22;34793;48.940;2.618;2022-08-21T14:19:43;34.70;49.50
48978;DHT22;34793;48.940;2.618;2022-08-21T14:27:34;34.80;50.00
48978;DHT22;34793;48.940;2.618;2022-08-21T14:30:02;34.50;48.70
48978;DHT22;34793;48.940;2.618;2022-08-21T14:32:28;34.40;48.80
48978;DHT22;34793;48.940;2.618;2022-08-21T14:34:55;34.20;49.80
48978;DHT22;34793;48.940;2.618;2022-08-21T14:37:21;34.70;49.40
48978;DHT22;34793;48.940;2.618;2022-08-21T14:39:47;34.80;47.10
48978;DHT22;34793;48.940;2.618;2022-08-21T14:42:12;34.80;47.60
48978;DHT22;34793;48.940;2.618;2022-08-21T14:44:38;34.60;47.60
48978;DHT22;34793;48.940;2.618;2022-08-21T14:47:03;34.60;48.50
48978;DHT22;34793;48.940;2.618;2022-08-21T14:49:29;34.70;49.30
48978;DHT22;34793;48.940;2.618;2022-08-21T14:51:55;35.00;49.30
48978;DHT22;34793;48.940;2.618;2022-08-21T14:54:28;35.10;48.20
48978;DHT22;34793;48.940;2.618;2022-08-21T14:56:55;35.00;47.60
48978;DHT22;34793;48.940;2.618;2022-08-21T14:59:21;34.70;47.90
48978;DHT22;34793;48.940;2.618;2022-08-21T15:01:47;34.60;48.40
48978;DHT22;34793;48.940;2.618;2022-08-21T15:04:12;34.60;48.90
48978;DHT22;34793;48.940;2.618;2022-08-21T15:06:38;34.60;48.60
48978;DHT22;34793;48.940;2.618;2022-08-21T15:09:03;34.70;48.00
48978;DHT22;34793;48.940;2.618;2022-08-21T15:11:30;34.80;48.90
48978;DHT22;34793;48.940;2.618;2022-08-21T15:13:57;34.80;48.20
48978;DHT22;34793;48.940;2.618;2022-08-21T15:16:26;35.00;48.40
48978;DHT22;34793;48.940;2.618;2022-08-21T15:18:52;35.00;48.30
48978;DHT22;34793;48.940;2.618;2022-08-21T15:21:17;35.20;48.60
48978;DHT22;34793;48.940;2.618;2022-08-21T15:23:43;35.20;47.30
48978;DHT22;34793;48.940;2.618;2022-08-21T15:26:08;34.80;46.90
48978;DHT22;34793;48.940;2.618;2022-08-21T15:28:34;34.60;48.70
48978;DHT22;34793;48.940;2.618;2022-08-21T15:31:00;34.30;48.40
48978;DHT22;34793;48.940;2.618;2022-08-21T15:33:26;34.20;48.50
48978;DHT22;34793;48.940;2.618;2022-08-21T15:35:51;34.30;49.00
48978;DHT22;34793;48.940;2.618;2022-08-21T15:38:17;34.50;48.60
48978;DHT22;34793;48.940;2.618;2022-08-21T15:40:43;34.80;49.30
48978;DHT22;34793;48.940;2.618;2022-08-21T15:43:11;34.90;48.80
48978;DHT22;34793;48.940;2.618;2022-08-21T15:45:40;34.90;47.70
48978;DHT22;34793;48.940;2.618;2022-08-21T15:48:05;34.80;49.00
48978;DHT22;34793;48.940;2.618;2022-08-21T15:50:31;34.60;48.60
48978;DHT22;34793;48.940;2.618;2022-08-21T15:52:57;34.50;49.30
48978;DHT22;34793;48.940;2.618;2022-08-21T15:55:22;34.50;49.10
48978;DHT22;34793;48.940;2.618;2022-08-21T15:57:49;34.30;48.70
48978;DHT22;34793;48.940;2.618;2022-08-21T16:00:17;34.30;48.70
48978;DHT22;34793;48.940;2.618;2022-08-21T16:02:44;34.20;49.40
48978;DHT22;34793;48.940;2.618;2022-08-21T16:05:11;33.90;49.50
48978;DHT22;34793;48.940;2.618;2022-08-21T16:07:37;34.00;50.00
48978;DHT22;34793;48.940;2.618;2022-08-21T16:10:04;33.90;49.20
48978;DHT22;34793;48.940;2.618;2022-08-21T16:12:31;33.80;50.10
48978;DHT22;34793;48.940;2.618;2022-08-21T16:14:58;33.70;49.80
48978;DHT22;34793;48.940;2.618;2022-08-21T16:17:24;33.70;50.40
48978;DHT22;34793;48.940;2.618;2022-08-21T16:19:51;33.30;50.30
48978;DHT22;34793;48.940;2.618;2022-08-21T16:22:17;33.20;51.10
48978;DHT22;34793;48.940;2.618;2022-08-21T16:24:42;33.20;50.90
48978;DHT22;34793;48.940;2.618;2022-08-21T16:27:08;33.20;50.60
48978;DHT22;34793;48.940;2.618;2022-08-21T16:29:34;33.20;50.60
48978;DHT22;34793;48.940;2.618;2022-08-21T16:32:00;33.60;50.80
48978;DHT22;34793;48.940;2.618;2022-08-21T16:34:26;34.00;51.00
48978;DHT22;34793;48.940;2.618;2022-08-21T16:36:53;34.20;50.10
48978;DHT22;34793;48.940;2.618;2022-08-21T16:39:18;34.30;48.80
48978;DHT22;34793;48.940;2.618;2022-08-21T16:41:44;34.40;50.10
48978;DHT22;34793;48.940;2.618;2022-08-21T16:44:09;34.60;49.80
48978;DHT22;34793;48.940;2.618;2022-08-21T16:46:37;34.60;49.20
48978;DHT22;34793;48.940;2.618;2022-08-21T16:49:03;34.20;49.00
48978;DHT22;34793;48.940;2.618;2022-08-21T16:51:29;34.00;49.30
48978;DHT22;34793;48.940;2.618;2022-08-21T16:53:59;33.90;49.90
48978;DHT22;34793;48.940;2.618;2022-08-21T16:56:24;33.70;49.60
48978;DHT22;34793;48.940;2.618;2022-08-21T16:58:50;33.80;49.90